sensor_id;sensor_type;location;lat;lon;timestamp;P1;durP1;ratioP1;P2;durP2;ratioP2
51146;SDS011;37207;53.060;18.726;2022-08-19T00:01:51;16.80;;;13.40;;
51146;SDS011;37207;53.060;18.726;2022-08-19T00:04:21;14.80;;;12.70;;
51146;SDS011;37207;53.060;18.726;2022-08-19T00:06:50;13.70;;;12.50;;
51146;SDS011;37207;53.060;18.726;2022-08-19T00:09:19;14.10;;;12.70;;
51146;SDS011;37207;53.060;18.726;2022-08-19T00:11:50;15.20;;;13.10;;
51146;SDS011;37207;53.060;18.726;2022-08-19T00:16:45;14.60;;;13.40;;
51146;SDS011;37207;53.060;18.726;2022-08-19T00:19:20;14.70;;;13.40;;
51146;SDS011;37207;53.060;18.726;2022-08-19T00:21:49;15.00;;;13.50;;
51146;SDS011;37207;53.060;18.726;2022-08-19T00:24:19;14.80;;;13.20;;
51146;SDS011;37207;53.060;18.726;2022-08-19T00:26:46;18.10;;;15.10;;
51146;SDS011;37207;53.060;18.726;2022-08-19T00:29:14;15.10;;;14.00;;
51146;SDS011;37207;53.060;18.726;2022-08-19T00:31:45;14.90;;;13.30;;
51146;SDS011;37207;53.060;18.726;2022-08-19T00:34:14;22.20;;;14.60;;
51146;SDS011;37207;53.060;18.726;2022-08-19T00:36:44;15.60;;;14.20;;
51146;SDS011;37207;53.060;18.726;2022-08-19T00:39:12;16.80;;;15.20;;
51146;SDS011;37207;53.060;18.726;2022-08-19T00:41:44;16.00;;;14.50;;
51146;SDS011;37207;53.060;18.726;2022-08-19T00:44:20;16.00;;;14.50;;
51146;SDS011;37207;53.060;18.726;2022-08-19T00:46:50;18.20;;;14.80;;
51146;SDS011;37207;53.060;18.726;2022-08-19T00:49:24;15.90;;;13.90;;
51146;SDS011;37207;53.060;18.726;2022-08-19T00:52:15;17.70;;;15.20;;
51146;SDS011;37207;53.060;18.726;2022-08-19T00:54:50;17.30;;;15.80;;
51146;SDS011;37207;53.060;18.726;2022-08-19T00:57:20;18.60;;;15.20;;
51146;SDS011;37207;53.060;18.726;2022-08-19T00:59:54;18.00;;;14.60;;
51146;SDS011;37207;53.060;18.726;2022-08-19T01:02:23;17.60;;;16.10;;
51146;SDS011;37207;53.060;18.726;2022-08-19T01:04:51;16.70;;;15.40;;
51146;SDS011;37207;53.060;18.726;2022-08-19T01:07:18;15.50;;;14.10;;
51146;SDS011;37207;53.060;18.726;2022-08-19T01:09:46;17.50;;;15.70;;
51146;SDS011;37207;53.060;18.726;2022-08-19T01:12:13;16.70;;;15.20;;
51146;SDS011;37207;53.060;18.726;2022-08-19T01:14:40;16.50;;;14.80;;
51146;SDS011;37207;53.060;18.726;2022-08-19T01:17:11;17.10;;;15.60;;
51146;SDS011;37207;53.060;18.726;2022-08-19T01:19:41;16.90;;;15.60;;
51146;SDS011;37207;53.060;18.726;2022-08-19T01:25:12;17.80;;;16.10;;
51146;SDS011;37207;53.060;18.726;2022-08-19T01:27:43;17.70;;;15.90;;
51146;SDS011;37207;53.060;18.726;2022-08-19T01:30:19;16.90;;;15.40;;
51146;SDS011;37207;53.060;18.726;2022-08-19T01:32:50;17.90;;;16.20;;
51146;SDS011;37207;53.060;18.726;2022-08-19T01:35:19;17.90;;;16.20;;
51146;SDS011;37207;53.060;18.726;2022-08-19T01:37:51;16.90;;;15.60;;
51146;SDS011;37207;53.060;18.726;2022-08-19T01:40:21;17.80;;;16.20;;
51146;SDS011;37207;53.060;18.726;2022-08-19T01:42:52;17.80;;;15.50;;
51146;SDS011;37207;53.060;18.726;2022-08-19T01:45:21;19.40;;;17.70;;
51146;SDS011;37207;53.060;18.726;2022-08-19T01:47:49;19.00;;;17.20;;
51146;SDS011;37207;53.060;18.726;2022-08-19T01:50:19;18.80;;;17.00;;
51146;SDS011;37207;53.060;18.726;2022-08-19T01:52:47;18.10;;;16.60;;
51146;SDS011;37207;53.060;18.726;2022-08-19T01:55:16;18.70;;;17.10;;
51146;SDS011;37207;53.060;18.726;2022-08-19T01:57:48;42.80;;;17.60;;
51146;SDS011;37207;53.060;18.726;2022-08-19T02:00:19;22.60;;;17.40;;
51146;SDS011;37207;53.060;18.726;2022-08-19T02:02:50;18.00;;;16.60;;
51146;SDS011;37207;53.060;18.726;2022-08-19T02:05:18;19.20;;;17.40;;
51146;SDS011;37207;53.060;18.726;2022-08-19T02:07:47;27.50;;;17.70;;
51146;SDS011;37207;53.060;18.726;2022-08-19T02:10:18;18.30;;;16.80;;
51146;SDS011;37207;53.060;18.726;2022-08-19T02:12:48;19.00;;;17.30;;
51146;SDS011;37207;53.060;18.726;2022-08-19T02:15:18;17.80;;;16.30;;
51146;SDS011;37207;53.060;18.726;2022-08-19T02:17:46;19.10;;;17.50;;
51146;SDS011;37207;53.060;18.726;2022-08-19T02:20:17;18.50;;;16.60;;
51146;SDS011;37207;53.060;18.726;2022-08-19T02:22:44;19.20;;;17.30;;
51146;SDS011;37207;53.060;18.726;2022-08-19T02:25:12;18.20;;;16.60;;
51146;SDS011;37207;53.060;18.726;2022-08-19T02:27:41;18.40;;;16.60;;
51146;SDS011;37207;53.060;18.726;2022-08-19T02:30:14;18.60;;;17.20;;
51146;SDS011;37207;53.060;18.726;2022-08-19T02:32:43;19.80;;;17.90;;
51146;SDS011;37207;53.060;18.726;2022-08-19T02:35:11;22.10;;;16.90;;
51146;SDS011;37207;53.060;18.726;2022-08-19T02:37:45;21.10;;;18.30;;
51146;SDS011;37207;53.060;18.726;2022-08-19T02:40:31;21.10;;;18.80;;
51146;SDS011;37207;53.060;18.726;2022-08-19T02:43:02;25.90;;;18.70;;
51146;SDS011;37207;53.060;18.726;2022-08-19T02:45:34;21.90;;;18.60;;
51146;SDS011;37207;53.060;18.726;2022-08-19T02:48:03;23.20;;;19.10;;
51146;SDS011;37207;53.060;18.726;2022-08-19T02:50:31;20.40;;;18.70;;
51146;SDS011;37207;53.060;18.726;2022-08-19T02:52:58;21.10;;;19.00;;
51146;SDS011;37207;53.060;18.726;2022-08-19T02:55:26;31.10;;;19.60;;
51146;SDS011;37207;53.060;18.726;2022-08-19T02:57:53;23.60;;;18.40;;
51146;SDS011;37207;53.060;18.726;2022-08-19T03:00:21;20.70;;;18.90;;
51146;SDS011;37207;53.060;18.726;2022-08-19T03:02:53;19.70;;;17.70;;
51146;SDS011;37207;53.060;18.726;2022-08-19T03:05:20;23.30;;;19.70;;
51146;SDS011;37207;53.060;18.726;2022-08-19T03:07:47;22.90;;;18.70;;
51146;SDS011;37207;53.060;18.726;2022-08-19T03:10:14;20.50;;;18.50;;
51146;SDS011;37207;53.060;18.726;2022-08-19T03:12:41;23.00;;;20.00;;
51146;SDS011;37207;53.060;18.726;2022-08-19T03:15:08;25.80;;;19.00;;
51146;SDS011;37207;53.060;18.726;2022-08-19T03:17:36;21.50;;;19.40;;
51146;SDS011;37207;53.060;18.726;2022-08-19T03:20:03;25.90;;;19.40;;
51146;SDS011;37207;53.060;18.726;2022-08-19T03:22:31;20.70;;;18.80;;
51146;SDS011;37207;53.060;18.726;2022-08-19T03:24:59;20.20;;;18.40;;
51146;SDS011;37207;53.060;18.726;2022-08-19T03:27:26;19.20;;;17.60;;
51146;SDS011;37207;53.060;18.726;2022-08-19T03:29:53;21.10;;;18.90;;
51146;SDS011;37207;53.060;18.726;2022-08-19T03:32:21;20.80;;;19.10;;
51146;SDS011;37207;53.060;18.726;2022-08-19T03:34:48;20.10;;;18.20;;
51146;SDS011;37207;53.060;18.726;2022-08-19T03:37:17;20.40;;;18.40;;
51146;SDS011;37207;53.060;18.726;2022-08-19T03:39:44;19.70;;;17.90;;
51146;SDS011;37207;53.060;18.726;2022-08-19T03:42:12;21.40;;;18.60;;
51146;SDS011;37207;53.060;18.726;2022-08-19T03:44:39;19.60;;;18.20;;
51146;SDS011;37207;53.060;18.726;2022-08-19T03:47:07;20.20;;;18.30;;
51146;SDS011;37207;53.060;18.726;2022-08-19T03:49:34;19.00;;;17.20;;
51146;SDS011;37207;53.060;18.726;2022-08-19T03:52:02;21.20;;;16.60;;
51146;SDS011;37207;53.060;18.726;2022-08-19T03:54:33;18.60;;;17.10;;
51146;SDS011;37207;53.060;18.726;2022-08-19T03:57:02;19.70;;;17.70;;
51146;SDS011;37207;53.060;18.726;2022-08-19T03:59:31;21.20;;;17.30;;
51146;SDS011;37207;53.060;18.726;2022-08-19T04:02:01;20.00;;;16.20;;
51146;SDS011;37207;53.060;18.726;2022-08-19T04:04:37;19.30;;;17.80;;
51146;SDS011;37207;53.060;18.726;2022-08-19T04:07:26;19.20;;;17.10;;
51146;SDS011;37207;53.060;18.726;2022-08-19T04:09:55;17.90;;;16.40;;
51146;SDS011;37207;53.060;18.726;2022-08-19T04:12:26;17.60;;;16.20;;
51146;SDS011;37207;53.060;18.726;2022-08-19T04:14:58;18.10;;;16.60;;
51146;SDS011;37207;53.060;18.726;2022-08-19T04:17:28;17.00;;;15.70;;
51146;SDS011;37207;53.060;18.726;2022-08-19T04:20:03;17.60;;;16.00;;
51146;SDS011;37207;53.060;18.726;2022-08-19T04:22:33;16.40;;;14.90;;
51146;SDS011;37207;53.060;18.726;2022-08-19T04:27:28;16.50;;;14.80;;
51146;SDS011;37207;53.060;18.726;2022-08-19T04:29:55;15.90;;;14.60;;
51146;SDS011;37207;53.060;18.726;2022-08-19T04:32:23;16.60;;;15.10;;
51146;SDS011;37207;53.060;18.726;2022-08-19T04:34:51;15.80;;;14.60;;
51146;SDS011;37207;53.060;18.726;2022-08-19T04:37:18;15.40;;;14.10;;
51146;SDS011;37207;53.060;18.726;2022-08-19T04:39:46;15.90;;;14.20;;
51146;SDS011;37207;53.060;18.726;2022-08-19T04:42:32;18.10;;;15.00;;
51146;SDS011;37207;53.060;18.726;2022-08-19T04:45:08;14.90;;;13.80;;
51146;SDS011;37207;53.060;18.726;2022-08-19T04:47:39;16.40;;;14.20;;
51146;SDS011;37207;53.060;18.726;2022-08-19T04:50:09;17.10;;;12.60;;
51146;SDS011;37207;53.060;18.726;2022-08-19T04:52:40;14.80;;;13.40;;
51146;SDS011;37207;53.060;18.726;2022-08-19T04:55:10;14.10;;;12.90;;
51146;SDS011;37207;53.060;18.726;2022-08-19T04:57:39;14.40;;;13.20;;
51146;SDS011;37207;53.060;18.726;2022-08-19T05:00:10;14.40;;;13.20;;
51146;SDS011;37207;53.060;18.726;2022-08-19T05:02:38;17.00;;;14.40;;
51146;SDS011;37207;53.060;18.726;2022-08-19T05:05:08;15.00;;;13.70;;
51146;SDS011;37207;53.060;18.726;2022-08-19T05:07:35;14.90;;;13.40;;
51146;SDS011;37207;53.060;18.726;2022-08-19T05:10:05;16.80;;;13.90;;
51146;SDS011;37207;53.060;18.726;2022-08-19T05:12:33;17.80;;;15.20;;
51146;SDS011;37207;53.060;18.726;2022-08-19T05:15:01;14.60;;;13.10;;
51146;SDS011;37207;53.060;18.726;2022-08-19T05:17:29;21.20;;;14.10;;
51146;SDS011;37207;53.060;18.726;2022-08-19T05:19:56;14.10;;;13.20;;
51146;SDS011;37207;53.060;18.726;2022-08-19T05:22:43;15.10;;;13.80;;
51146;SDS011;37207;53.060;18.726;2022-08-19T05:25:13;14.50;;;13.10;;
51146;SDS011;37207;53.060;18.726;2022-08-19T05:27:45;15.50;;;13.80;;
51146;SDS011;37207;53.060;18.726;2022-08-19T05:30:12;14.00;;;12.30;;
51146;SDS011;37207;53.060;18.726;2022-08-19T05:32:40;15.40;;;14.20;;
51146;SDS011;37207;53.060;18.726;2022-08-19T05:35:08;15.80;;;11.40;;
51146;SDS011;37207;53.060;18.726;2022-08-19T05:37:36;14.10;;;11.90;;
51146;SDS011;37207;53.060;18.726;2022-08-19T05:40:07;14.10;;;12.70;;
51146;SDS011;37207;53.060;18.726;2022-08-19T05:42:36;17.20;;;12.30;;
51146;SDS011;37207;53.060;18.726;2022-08-19T05:45:06;15.00;;;11.80;;
51146;SDS011;37207;53.060;18.726;2022-08-19T05:47:34;13.60;;;11.50;;
51146;SDS011;37207;53.060;18.726;2022-08-19T05:50:02;13.10;;;11.80;;
51146;SDS011;37207;53.060;18.726;2022-08-19T05:52:30;14.20;;;12.40;;
51146;SDS011;37207;53.060;18.726;2022-08-19T05:54:58;13.30;;;12.00;;
51146;SDS011;37207;53.060;18.726;2022-08-19T05:57:25;19.10;;;12.70;;
51146;SDS011;37207;53.060;18.726;2022-08-19T05:59:55;13.40;;;11.60;;
51146;SDS011;37207;53.060;18.726;2022-08-19T06:02:23;14.20;;;12.70;;
51146;SDS011;37207;53.060;18.726;2022-08-19T06:04:51;14.20;;;12.70;;
51146;SDS011;37207;53.060;18.726;2022-08-19T06:07:18;14.10;;;12.70;;
51146;SDS011;37207;53.060;18.726;2022-08-19T06:09:46;16.10;;;12.30;;
51146;SDS011;37207;53.060;18.726;2022-08-19T06:12:13;30.80;;;13.90;;
51146;SDS011;37207;53.060;18.726;2022-08-19T06:14:40;14.00;;;12.80;;
51146;SDS011;37207;53.060;18.726;2022-08-19T06:17:08;14.60;;;13.20;;
51146;SDS011;37207;53.060;18.726;2022-08-19T06:19:36;14.50;;;13.00;;
51146;SDS011;37207;53.060;18.726;2022-08-19T06:22:05;13.30;;;12.30;;
51146;SDS011;37207;53.060;18.726;2022-08-19T06:24:33;13.70;;;12.50;;
51146;SDS011;37207;53.060;18.726;2022-08-19T06:27:04;13.50;;;12.10;;
51146;SDS011;37207;53.060;18.726;2022-08-19T06:29:34;14.30;;;12.70;;
51146;SDS011;37207;53.060;18.726;2022-08-19T06:32:02;15.20;;;12.90;;
51146;SDS011;37207;53.060;18.726;2022-08-19T06:34:30;13.20;;;11.80;;
51146;SDS011;37207;53.060;18.726;2022-08-19T06:37:00;16.30;;;11.40;;
51146;SDS011;37207;53.060;18.726;2022-08-19T06:39:30;19.40;;;11.00;;
51146;SDS011;37207;53.060;18.726;2022-08-19T06:42:00;11.60;;;10.60;;
51146;SDS011;37207;53.060;18.726;2022-08-19T06:44:35;11.00;;;9.70;;
51146;SDS011;37207;53.060;18.726;2022-08-19T06:47:05;16.30;;;10.60;;
51146;SDS011;37207;53.060;18.726;2022-08-19T06:49:35;10.60;;;9.80;;
51146;SDS011;37207;53.060;18.726;2022-08-19T06:52:04;10.80;;;9.40;;
51146;SDS011;37207;53.060;18.726;2022-08-19T06:54:32;18.60;;;10.80;;
51146;SDS011;37207;53.060;18.726;2022-08-19T07:02:01;10.90;;;9.50;;
51146;SDS011;37207;53.060;18.726;2022-08-19T07:04:34;15.70;;;10.10;;
51146;SDS011;37207;53.060;18.726;2022-08-19T07:07:04;9.10;;;8.30;;
51146;SDS011;37207;53.060;18.726;2022-08-19T07:09:35;9.80;;;9.00;;
51146;SDS011;37207;53.060;18.726;2022-08-19T07:12:05;9.40;;;8.70;;
51146;SDS011;37207;53.060;18.726;2022-08-19T07:14:34;14.80;;;9.50;;
51146;SDS011;37207;53.060;18.726;2022-08-19T07:17:05;9.80;;;8.90;;
51146;SDS011;37207;53.060;18.726;2022-08-19T07:19:34;9.20;;;8.40;;
51146;SDS011;37207;53.060;18.726;2022-08-19T07:22:03;14.30;;;8.80;;
51146;SDS011;37207;53.060;18.726;2022-08-19T07:24:32;9.50;;;8.60;;
51146;SDS011;37207;53.060;18.726;2022-08-19T07:27:01;9.50;;;8.30;;
51146;SDS011;37207;53.060;18.726;2022-08-19T07:29:31;14.40;;;8.70;;
51146;SDS011;37207;53.060;18.726;2022-08-19T07:32:00;9.50;;;7.80;;
51146;SDS011;37207;53.060;18.726;2022-08-19T07:34:29;13.90;;;8.20;;
51146;SDS011;37207;53.060;18.726;2022-08-19T07:36:56;9.30;;;8.40;;
51146;SDS011;37207;53.060;18.726;2022-08-19T07:39:28;8.80;;;8.00;;
51146;SDS011;37207;53.060;18.726;2022-08-19T07:41:57;16.80;;;8.20;;
51146;SDS011;37207;53.060;18.726;2022-08-19T07:44:26;10.20;;;8.20;;
51146;SDS011;37207;53.060;18.726;2022-08-19T07:46:54;10.20;;;8.60;;
51146;SDS011;37207;53.060;18.726;2022-08-19T07:49:23;9.00;;;8.40;;
51146;SDS011;37207;53.060;18.726;2022-08-19T07:51:55;13.00;;;7.30;;
51146;SDS011;37207;53.060;18.726;2022-08-19T07:54:39;8.40;;;7.60;;
51146;SDS011;37207;53.060;18.726;2022-08-19T07:57:07;13.60;;;8.30;;
51146;SDS011;37207;53.060;18.726;2022-08-19T07:59:36;10.60;;;7.30;;
51146;SDS011;37207;53.060;18.726;2022-08-19T08:02:21;8.70;;;7.40;;
51146;SDS011;37207;53.060;18.726;2022-08-19T08:04:49;9.40;;;7.70;;
51146;SDS011;37207;53.060;18.726;2022-08-19T08:07:35;15.00;;;7.30;;
51146;SDS011;37207;53.060;18.726;2022-08-19T08:10:24;16.20;;;7.20;;
51146;SDS011;37207;53.060;18.726;2022-08-19T08:12:53;10.80;;;7.30;;
51146;SDS011;37207;53.060;18.726;2022-08-19T08:15:23;8.40;;;7.60;;
51146;SDS011;37207;53.060;18.726;2022-08-19T08:17:50;13.90;;;7.60;;
51146;SDS011;37207;53.060;18.726;2022-08-19T08:20:18;9.00;;;7.40;;
51146;SDS011;37207;53.060;18.726;2022-08-19T08:22:46;7.70;;;7.00;;
51146;SDS011;37207;53.060;18.726;2022-08-19T08:25:32;8.80;;;7.10;;
51146;SDS011;37207;53.060;18.726;2022-08-19T08:28:02;7.40;;;6.70;;
51146;SDS011;37207;53.060;18.726;2022-08-19T08:30:31;12.80;;;6.80;;
51146;SDS011;37207;53.060;18.726;2022-08-19T08:33:00;6.80;;;6.30;;
51146;SDS011;37207;53.060;18.726;2022-08-19T08:35:27;12.50;;;7.00;;
51146;SDS011;37207;53.060;18.726;2022-08-19T08:37:54;12.50;;;6.70;;
51146;SDS011;37207;53.060;18.726;2022-08-19T08:43:44;10.90;;;6.40;;
51146;SDS011;37207;53.060;18.726;2022-08-19T08:45:59;9.90;;;6.70;;
51146;SDS011;37207;53.060;18.726;2022-08-19T08:48:32;10.10;;;6.30;;
51146;SDS011;37207;53.060;18.726;2022-08-19T08:51:14;10.10;;;6.30;;
51146;SDS011;37207;53.060;18.726;2022-08-19T08:53:48;10.80;;;5.80;;
51146;SDS011;37207;53.060;18.726;2022-08-19T08:56:19;8.90;;;6.00;;
51146;SDS011;37207;53.060;18.726;2022-08-19T08:58:57;19.10;;;5.90;;
51146;SDS011;37207;53.060;18.726;2022-08-19T09:01:28;8.80;;;6.30;;
51146;SDS011;37207;53.060;18.726;2022-08-19T09:03:56;14.10;;;6.50;;
51146;SDS011;37207;53.060;18.726;2022-08-19T09:06:26;11.20;;;5.70;;
51146;SDS011;37207;53.060;18.726;2022-08-19T09:16:45;9.00;;;5.80;;
51146;SDS011;37207;53.060;18.726;2022-08-19T09:19:12;16.30;;;5.80;;
51146;SDS011;37207;53.060;18.726;2022-08-19T09:21:39;11.30;;;5.60;;
51146;SDS011;37207;53.060;18.726;2022-08-19T09:24:06;8.70;;;5.50;;
51146;SDS011;37207;53.060;18.726;2022-08-19T09:26:33;10.10;;;5.40;;
51146;SDS011;37207;53.060;18.726;2022-08-19T09:29:04;9.20;;;6.10;;
51146;SDS011;37207;53.060;18.726;2022-08-19T09:31:32;16.50;;;5.90;;
51146;SDS011;37207;53.060;18.726;2022-08-19T09:33:59;8.80;;;5.70;;
51146;SDS011;37207;53.060;18.726;2022-08-19T09:39:00;18.70;;;5.10;;
51146;SDS011;37207;53.060;18.726;2022-08-19T09:41:27;10.90;;;5.70;;
51146;SDS011;37207;53.060;18.726;2022-08-19T09:43:55;10.90;;;5.50;;
51146;SDS011;37207;53.060;18.726;2022-08-19T09:46:25;7.30;;;5.70;;
51146;SDS011;37207;53.060;18.726;2022-08-19T09:48:54;10.10;;;8.30;;
51146;SDS011;37207;53.060;18.726;2022-08-19T09:51:25;9.30;;;5.00;;
51146;SDS011;37207;53.060;18.726;2022-08-19T09:53:58;12.30;;;5.80;;
51146;SDS011;37207;53.060;18.726;2022-08-19T09:56:28;8.90;;;4.70;;
51146;SDS011;37207;53.060;18.726;2022-08-19T09:59:00;7.80;;;5.70;;
51146;SDS011;37207;53.060;18.726;2022-08-19T10:01:31;5.90;;;5.40;;
51146;SDS011;37207;53.060;18.726;2022-08-19T10:03:59;13.60;;;5.90;;
51146;SDS011;37207;53.060;18.726;2022-08-19T10:06:30;10.50;;;5.90;;
51146;SDS011;37207;53.060;18.726;2022-08-19T10:08:59;6.20;;;5.00;;
51146;SDS011;37207;53.060;18.726;2022-08-19T10:11:27;9.40;;;5.30;;
51146;SDS011;37207;53.060;18.726;2022-08-19T10:13:55;5.40;;;4.70;;
51146;SDS011;37207;53.060;18.726;2022-08-19T10:16:23;11.00;;;5.20;;
51146;SDS011;37207;53.060;18.726;2022-08-19T10:21:22;7.80;;;4.90;;
51146;SDS011;37207;53.060;18.726;2022-08-19T10:23:52;9.70;;;5.50;;
51146;SDS011;37207;53.060;18.726;2022-08-19T10:26:22;6.80;;;5.40;;
51146;SDS011;37207;53.060;18.726;2022-08-19T10:28:57;9.60;;;5.60;;
51146;SDS011;37207;53.060;18.726;2022-08-19T10:31:26;8.20;;;5.90;;
51146;SDS011;37207;53.060;18.726;2022-08-19T10:33:56;8.00;;;5.00;;
51146;SDS011;37207;53.060;18.726;2022-08-19T10:36:31;6.90;;;5.00;;
51146;SDS011;37207;53.060;18.726;2022-08-19T10:39:04;9.40;;;5.00;;
51146;SDS011;37207;53.060;18.726;2022-08-19T10:41:36;5.90;;;5.30;;
51146;SDS011;37207;53.060;18.726;2022-08-19T10:44:06;8.30;;;5.20;;
51146;SDS011;37207;53.060;18.726;2022-08-19T10:46:38;9.50;;;4.90;;
51146;SDS011;37207;53.060;18.726;2022-08-19T10:49:12;9.60;;;5.20;;
51146;SDS011;37207;53.060;18.726;2022-08-19T10:51:40;6.60;;;5.40;;
51146;SDS011;37207;53.060;18.726;2022-08-19T10:54:26;7.70;;;5.60;;
51146;SDS011;37207;53.060;18.726;2022-08-19T10:57:16;11.10;;;5.80;;
51146;SDS011;37207;53.060;18.726;2022-08-19T10:59:43;10.30;;;5.40;;
51146;SDS011;37207;53.060;18.726;2022-08-19T11:02:11;7.80;;;5.20;;
51146;SDS011;37207;53.060;18.726;2022-08-19T11:04:40;9.80;;;5.40;;
51146;SDS011;37207;53.060;18.726;2022-08-19T11:07:07;10.00;;;5.40;;
51146;SDS011;37207;53.060;18.726;2022-08-19T11:09:38;7.80;;;4.80;;
51146;SDS011;37207;53.060;18.726;2022-08-19T11:12:07;5.90;;;5.30;;
51146;SDS011;37207;53.060;18.726;2022-08-19T11:14:36;5.20;;;4.80;;
51146;SDS011;37207;53.060;18.726;2022-08-19T11:17:04;11.40;;;5.20;;
51146;SDS011;37207;53.060;18.726;2022-08-19T11:19:32;8.90;;;5.10;;
51146;SDS011;37207;53.060;18.726;2022-08-19T11:22:00;8.90;;;5.00;;
51146;SDS011;37207;53.060;18.726;2022-08-19T11:24:30;9.50;;;5.10;;
51146;SDS011;37207;53.060;18.726;2022-08-19T11:27:00;8.10;;;5.00;;
51146;SDS011;37207;53.060;18.726;2022-08-19T11:29:37;5.70;;;5.10;;
51146;SDS011;37207;53.060;18.726;2022-08-19T11:32:06;6.10;;;5.30;;
51146;SDS011;37207;53.060;18.726;2022-08-19T11:34:36;7.90;;;5.00;;
51146;SDS011;37207;53.060;18.726;2022-08-19T11:37:03;6.10;;;5.50;;
51146;SDS011;37207;53.060;18.726;2022-08-19T11:39:33;12.00;;;4.80;;
51146;SDS011;37207;53.060;18.726;2022-08-19T11:42:02;5.60;;;5.00;;
51146;SDS011;37207;53.060;18.726;2022-08-19T11:44:54;5.20;;;4.80;;
51146;SDS011;37207;53.060;18.726;2022-08-19T11:49:48;9.10;;;5.00;;
51146;SDS011;37207;53.060;18.726;2022-08-19T11:52:15;9.40;;;5.40;;
51146;SDS011;37207;53.060;18.726;2022-08-19T11:54:42;8.00;;;5.10;;
51146;SDS011;37207;53.060;18.726;2022-08-19T11:59:36;6.00;;;5.10;;
51146;SDS011;37207;53.060;18.726;2022-08-19T12:04:30;9.00;;;5.10;;
51146;SDS011;37207;53.060;18.726;2022-08-19T12:06:57;5.80;;;4.10;;
51146;SDS011;37207;53.060;18.726;2022-08-19T12:09:24;16.30;;;5.10;;
51146;SDS011;37207;53.060;18.726;2022-08-19T12:11:52;5.80;;;5.20;;
51146;SDS011;37207;53.060;18.726;2022-08-19T12:14:19;10.50;;;5.30;;
51146;SDS011;37207;53.060;18.726;2022-08-19T12:16:46;7.10;;;5.10;;
51146;SDS011;37207;53.060;18.726;2022-08-19T12:19:13;4.90;;;4.50;;
51146;SDS011;37207;53.060;18.726;2022-08-19T12:21:42;7.50;;;5.20;;
51146;SDS011;37207;53.060;18.726;2022-08-19T12:24:09;10.40;;;4.80;;
51146;SDS011;37207;53.060;18.726;2022-08-19T12:26:36;14.60;;;5.80;;
51146;SDS011;37207;53.060;18.726;2022-08-19T12:31:30;11.50;;;5.40;;
51146;SDS011;37207;53.060;18.726;2022-08-19T12:34:01;5.30;;;4.80;;
51146;SDS011;37207;53.060;18.726;2022-08-19T12:36:29;5.90;;;5.10;;
51146;SDS011;37207;53.060;18.726;2022-08-19T12:38:57;12.00;;;5.40;;
51146;SDS011;37207;53.060;18.726;2022-08-19T12:41:26;8.60;;;5.10;;
51146;SDS011;37207;53.060;18.726;2022-08-19T12:43:53;11.90;;;5.00;;
51146;SDS011;37207;53.060;18.726;2022-08-19T12:48:49;6.10;;;4.80;;
51146;SDS011;37207;53.060;18.726;2022-08-19T12:51:17;10.20;;;4.70;;
51146;SDS011;37207;53.060;18.726;2022-08-19T12:53:48;9.80;;;5.20;;
51146;SDS011;37207;53.060;18.726;2022-08-19T12:56:16;16.10;;;5.50;;
51146;SDS011;37207;53.060;18.726;2022-08-19T12:58:44;6.70;;;4.90;;
51146;SDS011;37207;53.060;18.726;2022-08-19T13:03:41;8.40;;;4.60;;
51146;SDS011;37207;53.060;18.726;2022-08-19T13:06:09;8.40;;;4.60;;
51146;SDS011;37207;53.060;18.726;2022-08-19T13:08:36;10.20;;;5.00;;
51146;SDS011;37207;53.060;18.726;2022-08-19T13:11:09;10.00;;;5.50;;
51146;SDS011;37207;53.060;18.726;2022-08-19T13:13:42;10.00;;;4.70;;
51146;SDS011;37207;53.060;18.726;2022-08-19T13:16:10;8.50;;;4.80;;
51146;SDS011;37207;53.060;18.726;2022-08-19T13:18:39;11.50;;;6.10;;
51146;SDS011;37207;53.060;18.726;2022-08-19T13:21:08;10.50;;;5.10;;
51146;SDS011;37207;53.060;18.726;2022-08-19T13:23:39;11.70;;;6.40;;
51146;SDS011;37207;53.060;18.726;2022-08-19T13:26:08;9.90;;;5.10;;
51146;SDS011;37207;53.060;18.726;2022-08-19T13:28:36;18.70;;;5.30;;
51146;SDS011;37207;53.060;18.726;2022-08-19T13:31:23;12.20;;;5.30;;
51146;SDS011;37207;53.060;18.726;2022-08-19T13:34:11;11.80;;;5.60;;
51146;SDS011;37207;53.060;18.726;2022-08-19T13:36:39;5.90;;;4.90;;
51146;SDS011;37207;53.060;18.726;2022-08-19T13:39:07;12.80;;;5.60;;
51146;SDS011;37207;53.060;18.726;2022-08-19T13:41:36;7.40;;;5.40;;
51146;SDS011;37207;53.060;18.726;2022-08-19T13:44:04;10.10;;;5.40;;
51146;SDS011;37207;53.060;18.726;2022-08-19T13:46:33;11.10;;;5.60;;
51146;SDS011;37207;53.060;18.726;2022-08-19T13:49:00;7.10;;;5.30;;
51146;SDS011;37207;53.060;18.726;2022-08-19T13:51:27;15.00;;;5.70;;
51146;SDS011;37207;53.060;18.726;2022-08-19T13:53:54;6.00;;;5.40;;
51146;SDS011;37207;53.060;18.726;2022-08-19T13:56:24;23.60;;;6.30;;
51146;SDS011;37207;53.060;18.726;2022-08-19T13:58:51;6.90;;;5.60;;
51146;SDS011;37207;53.060;18.726;2022-08-19T14:01:24;11.00;;;5.80;;
51146;SDS011;37207;53.060;18.726;2022-08-19T14:04:03;12.20;;;5.80;;
51146;SDS011;37207;53.060;18.726;2022-08-19T14:06:34;8.20;;;5.40;;
51146;SDS011;37207;53.060;18.726;2022-08-19T14:09:07;5.80;;;5.00;;
51146;SDS011;37207;53.060;18.726;2022-08-19T14:11:35;9.30;;;5.70;;
51146;SDS011;37207;53.060;18.726;2022-08-19T14:14:02;6.90;;;5.70;;
51146;SDS011;37207;53.060;18.726;2022-08-19T14:16:29;16.50;;;6.10;;
51146;SDS011;37207;53.060;18.726;2022-08-19T14:18:57;11.30;;;5.70;;
51146;SDS011;37207;53.060;18.726;2022-08-19T14:21:24;12.80;;;5.90;;
51146;SDS011;37207;53.060;18.726;2022-08-19T14:23:52;10.80;;;6.00;;
51146;SDS011;37207;53.060;18.726;2022-08-19T14:26:20;10.90;;;5.60;;
51146;SDS011;37207;53.060;18.726;2022-08-19T14:28:48;12.20;;;5.80;;
51146;SDS011;37207;53.060;18.726;2022-08-19T14:31:16;11.00;;;5.80;;
51146;SDS011;37207;53.060;18.726;2022-08-19T14:33:51;13.10;;;6.50;;
51146;SDS011;37207;53.060;18.726;2022-08-19T14:36:19;10.60;;;6.20;;
51146;SDS011;37207;53.060;18.726;2022-08-19T14:38:47;9.00;;;6.20;;
51146;SDS011;37207;53.060;18.726;2022-08-19T14:41:19;7.90;;;6.10;;
51146;SDS011;37207;53.060;18.726;2022-08-19T14:43:50;12.60;;;6.40;;
51146;SDS011;37207;53.060;18.726;2022-08-19T14:46:20;9.90;;;6.50;;
51146;SDS011;37207;53.060;18.726;2022-08-19T14:48:50;12.00;;;5.80;;
51146;SDS011;37207;53.060;18.726;2022-08-19T14:51:21;16.00;;;6.00;;
51146;SDS011;37207;53.060;18.726;2022-08-19T14:53:50;13.80;;;6.50;;
51146;SDS011;37207;53.060;18.726;2022-08-19T14:56:19;6.70;;;6.10;;
51146;SDS011;37207;53.060;18.726;2022-08-19T14:58:49;12.50;;;5.80;;
51146;SDS011;37207;53.060;18.726;2022-08-19T15:01:21;7.60;;;6.60;;
51146;SDS011;37207;53.060;18.726;2022-08-19T15:03:49;7.50;;;6.80;;
51146;SDS011;37207;53.060;18.726;2022-08-19T15:06:22;6.80;;;5.90;;
51146;SDS011;37207;53.060;18.726;2022-08-19T15:08:51;7.90;;;6.70;;
51146;SDS011;37207;53.060;18.726;2022-08-19T15:11:21;12.40;;;6.10;;
51146;SDS011;37207;53.060;18.726;2022-08-19T15:13:50;9.30;;;6.50;;
51146;SDS011;37207;53.060;18.726;2022-08-19T15:18:52;8.00;;;6.40;;
51146;SDS011;37207;53.060;18.726;2022-08-19T15:21:21;8.30;;;6.20;;